Weather reports worldwide

Advertisment
Wasserkuppe, Germany (10544): temperature & dewpoint: 13.01.2021 07:00:00 - 19.01.2021 07:00:00 (CET)Wasserkuppe, Germany (10544): temperature 5cm & temperature -5cm: 13.01.2021 07:00:00 - 19.01.2021 07:00:00 (CET)Wasserkuppe, Germany (10544): temperature -20cm & temperature -100cm: 13.01.2021 07:00:00 - 19.01.2021 07:00:00 (CET)Wasserkuppe, Germany (10544): wind speed & gusts: 13.01.2021 07:00:00 - 19.01.2021 07:00:00 (CET)Wasserkuppe, Germany (10544): wind direction: 13.01.2021 07:00:00 - 19.01.2021 07:00:00 (CET)Wasserkuppe, Germany (10544): visibility: 13.01.2021 07:00:00 - 19.01.2021 07:00:00 (CET)Wasserkuppe, Germany (10544): sunshine duration: 13.01.2021 07:00:00 - 19.01.2021 07:00:00 (CET)Wasserkuppe, Germany (10544): precipitation: 13.01.2021 07:00:00 - 19.01.2021 07:00:00 (CET)
Date & Time tt [°C] td [°C] tt 5cm [°C] tt -5cm [°C] tt -20cm [°C] tt -100cm [°C] ff [km/h] ff [kn] fx [km/h] fx [kn] dd vv [km] sd [min] rr [mm]
19.01.2021 07:00:00 - - - - - - - - - - - - - -
19.01.2021 06:00:00 -3,0 -3,5 -0,3 0,5 1,3 3,5 48 26 77 42 SW 0,6 0 0,0
19.01.2021 05:00:00 -2,7 -3,2 -0,3 0,5 1,3 3,5 56 31 75 41 SW 0,2 0 0,0
19.01.2021 04:00:00 -2,5 -3,0 -0,3 0,5 1,3 3,5 54 29 68 37 WSW 0,1 0 0,0
19.01.2021 03:00:00 -2,2 -2,6 -0,3 0,5 1,3 3,5 50 27 69 37 WSW 0,1 0 0,0
19.01.2021 02:00:00 -2,1 -2,5 -0,3 0,5 1,3 3,5 47 25 68 37 WSW 0,1 0 0,0
19.01.2021 01:00:00 -2,2 -2,6 -0,3 0,5 1,3 3,5 40 21 61 33 WSW 0,1 0 0,0
19.01.2021 00:00:00 -2,2 -2,6 -0,3 0,5 1,3 3,5 40 22 56 31 WSW 0,1 0 0,1
18.01.2021 23:00:00 -2,3 -2,7 -0,3 0,5 1,3 3,5 35 19 62 33 W 0,1 0 0,1
18.01.2021 22:00:00 -2,3 -2,7 -0,3 0,5 1,3 3,5 44 24 60 32 WSW 0,1 0 0,0
18.01.2021 21:00:00 -2,2 -2,6 -0,3 0,5 1,3 3,5 41 22 65 35 WSW 0,1 0 0,0
18.01.2021 20:00:00 -2,2 -2,6 -0,3 0,5 1,3 3,5 46 25 63 34 WSW 0,1 0 0,0
18.01.2021 19:00:00 -2,1 -2,5 -0,4 0,5 1,3 3,5 36 20 63 34 WSW 0,1 0 0,0
18.01.2021 18:00:00 -2,1 -2,5 -0,4 0,5 1,3 3,5 40 22 57 31 WSW 0,1 0 0,4
18.01.2021 17:00:00 -2,2 -2,6 -0,4 0,5 1,3 3,5 29 16 59 32 W 0,1 0 0,7
18.01.2021 16:00:00 -2,1 -2,6 -0,4 0,5 1,3 3,5 35 19 51 28 WSW 0,1 0 0,0
18.01.2021 15:00:00 -2,2 -2,8 -0,4 0,5 1,3 3,5 31 17 50 27 WSW 0,1 0 0,0
18.01.2021 14:00:00 -2,3 -3,0 -0,4 0,5 1,3 3,5 27 15 40 22 W - 0 0,0
18.01.2021 13:00:00 -2,4 -3,1 -0,5 0,5 1,3 3,5 28 15 44 24 W 0,1 0 0,0
18.01.2021 12:00:00 -2,4 -3,1 -0,5 0,5 1,3 3,5 26 14 39 21 W 0,1 0 0,0
18.01.2021 11:00:00 -2,3 -3,0 -0,5 0,5 1,3 3,5 23 12 35 19 W 0,1 0 0,1
18.01.2021 10:00:00 -2,5 -3,1 -0,5 0,5 1,3 3,5 21 11 34 18 W 0,1 0 0,0
18.01.2021 09:00:00 -2,5 -3,0 -0,5 0,5 1,3 3,5 22 12 42 23 W 0,1 0 0,0
18.01.2021 08:00:00 -2,6 -3,0 -0,5 0,5 1,3 3,5 24 13 43 23 WNW 0,1 0 0,9
18.01.2021 07:00:00 -2,5 -2,8 -0,5 0,5 1,3 3,5 15 8 32 17 W 0,1 0 0,0
18.01.2021 06:00:00 -2,6 -3,0 -0,5 0,5 1,3 3,5 17 9 32 17 WNW 0,1 0 0,0
18.01.2021 05:00:00 -2,6 -3,0 -0,6 0,5 1,3 3,5 16 9 35 19 WNW 0,1 0 0,1
18.01.2021 04:00:00 -2,5 -2,9 -0,6 0,5 1,3 3,5 18 10 30 16 WNW 0,1 0 0,0
18.01.2021 03:00:00 -2,5 -2,9 -0,6 0,5 1,3 3,5 16 9 31 17 WNW 0,1 0 0,7
18.01.2021 02:00:00 -3,1 -3,6 -0,6 0,5 1,3 3,5 16 9 27 14 W 0,1 0 1,0
18.01.2021 01:00:00 -3,2 -3,7 -0,6 0,5 1,3 3,5 19 10 32 17 W 0,1 0 0,6
18.01.2021 00:00:00 -3,3 -3,8 -0,6 0,5 1,3 3,5 22 12 34 18 W 0,1 0 0,5
17.01.2021 23:00:00 -3,8 -4,3 -0,6 0,5 1,3 3,5 21 11 31 17 W 0,1 0 0,0
17.01.2021 22:00:00 -3,4 -4,0 -0,7 0,5 1,3 3,5 17 9 29 16 W 0,1 0 0,2
17.01.2021 21:00:00 -4,7 -5,4 -0,7 0,5 1,3 3,5 19 10 27 14 W 0,6 0 0,1
17.01.2021 20:00:00 -5,3 -6,0 -0,7 0,5 1,3 3,5 19 10 26 14 WSW 0,2 0 0,1
17.01.2021 19:00:00 -5,4 -6,2 -0,7 0,5 1,3 3,5 16 8 23 12 WSW 0,2 0 0,0
17.01.2021 18:00:00 -5,6 -6,5 -0,7 0,5 1,3 3,5 18 10 26 14 WSW 2,3 0 0,0
17.01.2021 17:00:00 -5,5 -6,4 -0,8 0,5 1,3 3,5 17 9 22 12 WSW 1,0 0 0,0
17.01.2021 16:00:00 -5,0 -6,1 -0,8 0,5 1,3 3,5 12 6 17 9 WSW 6 0 0,0
17.01.2021 15:00:00 -4,5 -5,9 -0,8 0,5 1,3 3,5 10 5 15 8 SW 0,7 0 0,0
17.01.2021 14:00:00 -4,1 -6,4 -0,8 0,5 1,3 3,5 11 6 16 9 SW 0,8 0 0,0
17.01.2021 13:00:00 -4,3 -6,8 -0,8 0,5 1,3 3,5 14 7 16 9 SW 5 0 0,1
17.01.2021 12:00:00 -5,3 -7,1 -0,8 0,5 1,3 3,5 10 5 18 10 SW 1,8 0 0,3
17.01.2021 11:00:00 -6,1 -7,6 -0,8 0,5 1,3 3,5 14 8 19 10 WSW 4,5 0 0,5
17.01.2021 10:00:00 -7,1 -8,4 -0,8 0,5 1,3 3,5 15 8 18 10 SSW 2,1 0 0,0
17.01.2021 09:00:00 -7,4 -8,6 -0,8 0,5 1,3 3,5 12 7 15 8 S 5 0 0,1
17.01.2021 08:00:00 -7,4 -8,3 -0,8 0,5 1,3 3,5 12 6 17 9 SSW 1,6 0 0,3
17.01.2021 07:00:00 -7,0 -8,0 -0,8 0,5 1,3 3,5 15 8 21 11 SW 1,8 0 0,3
17.01.2021 06:00:00 -7,1 -8,0 -0,8 0,5 1,3 3,5 16 9 21 12 SW 2,0 0 0,1
17.01.2021 05:00:00 -7,0 -7,9 -0,8 0,5 1,3 3,5 17 9 22 12 SW 2,7 0 0,0
17.01.2021 04:00:00 -7,3 -8,2 -0,8 0,5 1,3 3,5 17 9 27 15 WSW 10 0 0,0
17.01.2021 03:00:00 -7,5 -8,5 -0,8 0,5 1,3 3,5 22 12 27 15 SW 1,0 0 0,0
17.01.2021 02:00:00 -7,8 -8,8 -0,7 0,5 1,3 3,5 24 13 29 16 SSW 0,3 0 0,0
17.01.2021 01:00:00 -8,2 -9,4 -0,7 0,5 1,3 3,5 21 11 26 14 SSW 7 0 0,0
17.01.2021 00:00:00 -8,3 -9,6 -0,7 0,5 1,3 3,5 22 12 25 13 SSW 13 0 0,0
16.01.2021 23:00:00 -8,4 -9,6 -0,7 0,5 1,3 3,5 14 8 24 13 S 10 0 0,0
16.01.2021 22:00:00 -8,4 -9,6 -0,7 0,5 1,3 3,5 18 10 22 12 SSW 19 0 0,0
16.01.2021 21:00:00 -8,5 -9,7 -0,7 0,5 1,3 3,5 17 9 29 16 SSW 14 0 0,0
16.01.2021 20:00:00 -8,7 -10,1 -0,7 0,5 1,3 3,5 21 11 28 15 SW 31 0 0,0
16.01.2021 19:00:00 -8,6 -10,0 -0,7 0,5 1,3 3,5 18 10 26 14 SW 31 0 0,0
16.01.2021 18:00:00 -8,4 -9,7 -0,7 0,5 1,3 3,5 16 9 26 14 WSW 30 0 0,0
16.01.2021 17:00:00 -8,2 -9,6 -0,7 0,5 1,3 3,6 16 9 25 14 W 28 0 0,0
16.01.2021 16:00:00 -7,7 -9,1 -0,7 0,5 1,3 3,6 15 8 27 15 W 21 0 0,0
16.01.2021 15:00:00 -7,4 -8,9 -0,7 0,5 1,3 3,6 14 7 22 12 W 8 0 0,0
16.01.2021 14:00:00 -7,3 -9,0 -0,7 0,5 1,3 3,6 10 5 19 11 W 8 0 0,0
16.01.2021 13:00:00 -6,6 -8,7 -0,7 0,5 1,3 3,6 11 6 18 10 NW 17 0 0,0
16.01.2021 12:00:00 -7,2 -9,2 -0,7 0,5 1,3 3,6 12 7 32 18 NW 18 0 0,0
16.01.2021 11:00:00 -7,6 -9,4 -0,7 0,5 1,3 3,6 27 14 37 20 NNW 33 0 0,0
16.01.2021 10:00:00 -8,3 -10,0 -0,7 0,5 1,3 3,6 24 13 33 18 NNW 21 0 0,0
16.01.2021 09:00:00 -8,7 -10,1 -0,7 0,5 1,3 3,6 23 12 37 20 NNW 13 0 0,0
16.01.2021 08:00:00 -8,9 -10,3 -0,7 0,5 1,3 3,6 24 13 39 21 NNW 17 0 0,0
16.01.2021 07:00:00 -8,9 -10,2 -0,7 0,5 1,3 3,6 23 12 38 21 NNW 18 0 0,0
16.01.2021 06:00:00 -8,7 -10,0 -0,7 0,5 1,3 3,6 27 14 40 22 NW 17 0 0,0
16.01.2021 05:00:00 -8,0 -9,1 -0,7 0,5 1,3 3,6 24 13 32 18 NNW 1,0 0 0,0
16.01.2021 04:00:00 -7,5 -8,5 -0,7 0,5 1,3 3,6 22 12 34 18 NNW 0,2 0 0,0
16.01.2021 03:00:00 -6,9 -7,8 -0,7 0,5 1,3 3,6 22 12 33 18 NNW 0,1 0 0,0
16.01.2021 02:00:00 -6,6 -7,6 -0,7 0,5 1,3 3,6 25 14 31 17 NNW 0,1 0 0,0
16.01.2021 01:00:00 -6,3 -7,2 -0,7 0,5 1,3 3,6 22 12 34 18 N 0,1 0 0,0
16.01.2021 00:00:00 -5,9 -6,8 -0,7 0,5 1,3 3,6 24 13 34 18 NW 0,8 0 0,0
15.01.2021 23:00:00 -5,9 -6,7 -0,7 0,5 1,4 3,6 20 11 36 20 NNW 0,1 0 0,0
15.01.2021 22:00:00 -6,0 -6,9 -0,7 0,5 1,3 3,6 22 12 35 19 NNW 3,4 0 0,0
15.01.2021 21:00:00 -6,1 -7,1 -0,7 0,5 1,3 3,6 29 16 43 23 NNW 8 0 0,0
15.01.2021 20:00:00 -6,3 -7,5 -0,7 0,5 1,3 3,6 32 17 42 23 NNW 20 0 0,0
15.01.2021 19:00:00 -6,3 -7,7 -0,7 0,5 1,3 3,6 32 17 42 23 NNW 36 0 0,0
15.01.2021 18:00:00 -5,9 -7,0 -0,7 0,5 1,3 3,6 32 17 44 24 NNW 12 0 0,0
15.01.2021 17:00:00 -5,5 -6,5 -0,7 0,5 1,3 3,6 31 17 43 23 NNW 0,8 0 0,0
15.01.2021 16:00:00 -5,4 -6,4 -0,7 0,5 1,4 3,6 23 12 36 19 N 1,7 0 0,0
15.01.2021 15:00:00 -5,1 -6,2 -0,7 0,5 1,4 3,6 32 17 41 22 N 0,4 0 0,1
15.01.2021 14:00:00 -4,7 -5,7 -0,7 0,5 1,3 3,6 24 13 32 18 N 0,1 0 0,1
15.01.2021 13:00:00 -4,8 -6,0 -0,7 0,5 1,4 3,6 16 8 23 12 NNE 0,2 0 0,0
15.01.2021 12:00:00 -5,0 -6,2 -0,7 0,5 1,4 3,6 15 8 28 15 NNE 0,1 0 0,0
15.01.2021 11:00:00 -5,3 -6,5 -0,7 0,5 1,4 3,6 16 8 24 13 NNE 0,4 0 0,0
15.01.2021 10:00:00 -5,5 -6,7 -0,6 0,5 1,4 3,6 16 8 24 13 NNE 5 0 0,0
15.01.2021 09:00:00 -5,7 -6,8 -0,6 0,5 1,4 3,6 13 7 20 11 NNE 1,4 0 0,0
15.01.2021 08:00:00 -6,4 -7,6 -0,6 0,5 1,4 3,6 14 8 23 13 NNE 45 0 0,0
15.01.2021 07:00:00 -7,0 -8,5 -0,6 0,5 1,4 3,6 14 7 22 12 NE 63 0 0,0
15.01.2021 06:00:00 -7,4 -8,8 -0,6 0,5 1,4 3,6 14 8 25 13 ENE 57 0 0,0
15.01.2021 05:00:00 -7,5 -9,0 -0,5 0,5 1,4 3,6 17 9 29 16 NE 63 0 0,0
15.01.2021 04:00:00 -7,3 -8,8 -0,5 0,5 1,4 3,6 20 11 28 15 ENE 67 0 0,0
15.01.2021 03:00:00 -6,7 -8,0 -0,5 0,5 1,4 3,6 18 10 28 15 ENE 28 0 0,0
15.01.2021 02:00:00 -5,6 -6,7 -0,5 0,5 1,4 3,6 14 7 23 12 E 15 0 0,0
15.01.2021 01:00:00 -5,2 -6,1 -0,5 0,5 1,4 3,6 14 8 21 11 E 1,1 0 0,0
15.01.2021 00:00:00 -5,3 -6,3 -0,5 0,5 1,4 3,6 14 8 22 12 E 15 0 0,0
14.01.2021 23:00:00 -6,1 -7,4 -0,5 0,5 1,4 3,6 15 8 24 13 E 62 0 0,0
14.01.2021 22:00:00 -5,9 -7,4 -0,5 0,5 1,4 3,6 13 7 24 13 E 63 0 0,0
14.01.2021 21:00:00 -5,7 -7,0 -0,5 0,5 1,4 3,6 12 7 24 13 E 64 0 0,0
14.01.2021 20:00:00 -5,5 -6,8 -0,5 0,5 1,4 3,6 13 7 23 12 E 65 0 0,0
14.01.2021 19:00:00 -5,4 -6,6 -0,5 0,5 1,4 3,6 11 6 22 12 ESE 52 0 0,0
14.01.2021 18:00:00 -5,3 -6,6 -0,5 0,5 1,4 3,6 11 6 19 10 E 55 0 0,0
14.01.2021 17:00:00 -5,2 -6,3 -0,5 0,5 1,4 3,6 7 4 17 9 E 53 0 0,0
14.01.2021 16:00:00 -5,1 -6,4 -0,5 0,5 1,4 3,6 8 4 16 9 ENE 55 0 0,0
14.01.2021 15:00:00 -4,5 -5,8 -0,5 0,5 1,4 3,6 9 5 24 13 N 34 0 0,0
14.01.2021 14:00:00 -3,8 -5,0 -0,5 0,5 1,4 3,6 11 6 27 15 N 18 0 0,0
14.01.2021 13:00:00 -3,9 -5,0 -0,4 0,5 1,4 3,6 16 9 22 12 N 0,2 0 0,0
14.01.2021 12:00:00 -4,3 -5,4 -0,4 0,5 1,4 3,6 23 13 32 17 N 0,1 0 0,0
14.01.2021 11:00:00 -4,9 -5,9 -0,4 0,5 1,4 3,6 24 13 40 21 N 0,1 0 0,0
14.01.2021 10:00:00 -5,4 -6,4 -0,4 0,5 1,4 3,6 28 15 51 27 N 0,1 0 0,0
14.01.2021 09:00:00 -5,7 -6,6 -0,4 0,5 1,4 3,6 38 20 49 26 NNW 0,3 0 0,0
14.01.2021 08:00:00 -6,1 -7,1 -0,4 0,5 1,4 3,6 30 16 56 31 NNW 4,3 0 0,0
14.01.2021 07:00:00 -6,0 -7,0 -0,4 0,5 1,4 3,6 30 16 47 25 NNW 15 0 0,0
14.01.2021 06:00:00 -5,9 -7,0 -0,4 0,5 1,4 3,6 32 17 63 34 NW 27 0 0,0
14.01.2021 05:00:00 -5,8 -6,9 -0,4 0,5 1,4 3,6 37 20 55 30 NW 23 0 0,0
14.01.2021 04:00:00 -5,5 -6,5 -0,4 0,5 1,4 3,6 34 18 62 34 NW 25 0 0,0
14.01.2021 03:00:00 -5,6 -6,8 -0,4 0,5 1,4 3,6 38 21 61 33 NW 26 0 0,0
14.01.2021 02:00:00 -5,0 -6,0 -0,4 0,5 1,4 3,6 39 21 63 34 NW 26 0 0,0
14.01.2021 01:00:00 -4,3 -5,3 -0,4 0,5 1,4 3,6 50 27 82 44 NNW 6 0 0,4
14.01.2021 00:00:00 -3,5 -4,1 -0,4 0,5 1,4 3,6 31 17 48 26 WNW 0,1 0 0,9
13.01.2021 23:00:00 -3,8 -4,4 -0,4 0,5 1,4 3,6 26 14 49 26 WNW 0,1 0 0,0
13.01.2021 22:00:00 -4,0 -4,6 -0,4 0,5 1,4 3,6 32 17 53 28 W 0,1 0 0,0
13.01.2021 21:00:00 -4,0 -4,6 -0,4 0,5 1,4 3,6 32 17 54 29 W 0,1 0 0,0
13.01.2021 20:00:00 -4,0 -4,6 -0,4 0,5 1,4 3,6 29 16 52 28 W 0,1 0 0,0
13.01.2021 19:00:00 -4,0 -4,6 -0,4 0,5 1,4 3,7 30 16 55 30 W 0,2 0 0,0
13.01.2021 18:00:00 -3,7 -4,3 -0,4 0,5 1,4 3,6 30 16 51 27 W 0,1 0 0,0
13.01.2021 17:00:00 -3,5 -4,1 -0,4 0,5 1,4 3,6 34 18 61 33 W 0,1 0 0,2
13.01.2021 16:00:00 -3,4 -4,0 -0,4 0,5 1,4 3,7 32 18 51 28 W 0,1 0 0,9
13.01.2021 15:00:00 -3,5 -4,2 -0,4 0,5 1,4 3,7 31 17 52 28 W 0,1 0 0,5
13.01.2021 14:00:00 -3,6 -4,4 -0,4 0,5 1,4 3,7 29 16 53 29 W 0,1 0 0,0
13.01.2021 13:00:00 -3,8 -4,6 -0,4 0,5 1,4 3,7 34 18 53 29 W 0,1 0 0,0
13.01.2021 12:00:00 -4,0 -4,7 -0,4 0,5 1,4 3,7 31 17 59 32 W 0,1 0 0,1
13.01.2021 11:00:00 -4,0 -4,7 -0,4 0,5 1,4 3,7 32 17 48 26 WSW 0,1 0 0,1
13.01.2021 10:00:00 -4,0 -4,8 -0,4 0,5 1,4 3,7 28 15 50 27 W 0,1 0 0,0
13.01.2021 09:00:00 -4,1 -4,8 -0,4 0,5 1,4 3,7 28 15 48 26 W 0,1 0 0,0
13.01.2021 08:00:00 -4,3 -5,0 -0,4 0,5 1,4 3,7 26 14 54 29 W 0,1 0 0,0
13.01.2021 07:00:00 -4,3 -5,0 -0,4 0,5 1,4 3,7 27 15 44 24 W 0,1 0 0,0

tt = temperature
td = dewpoint
tt 5cm = temperature 5cm
tt -5cm = temperature -5cm
tt -20cm = temperature -20cm
tt -100cm = temperature -100cm
ff = wind speed
fx = gusts
dd = wind direction
vv = visibility
sd = sunshine duration
rr = precipitation

Next stations